Time;durP1;ratioP1;P1;durP2;ratioP2;P2;SDS_P1;SDS_P2;PMS_P1;PMS_P2;Temp;Humidity;BMP_temperature;BMP_pressure;BME280_temperature;BME280_humidity;BME280_pressure;Samples;Min_cycle;Max_cycle;Signal;HPM_P1;HPM_P2
2021/11/06 00:00:52;;;;;;;8.63;7.63;;;;;;;6.85;94.56;101711.53;4971806;28;20202;-79
2021/11/06 00:03:18;;;;;;;14.57;8.93;;;;;;;6.88;94.96;101702.94;4970544;28;20245;-79
2021/11/06 00:05:45;;;;;;;9.73;8.73;;;;;;;6.74;95.73;101681.97;4973731;28;20576;-80
2021/11/06 00:08:11;;;;;;;10.67;9.57;;;;;;;6.61;96.79;101646.28;4970581;28;20241;-80
2021/11/06 00:10:38;;;;;;;11.23;9.97;;;;;;;6.66;97.35;101621.25;4970124;28;20227;-80
2021/11/06 00:13:04;;;;;;;11.03;8.67;;;;;;;6.70;96.65;101613.56;4968315;28;20254;-79
2021/11/06 00:15:32;;;;;;;10.53;8.53;;;;;;;6.73;96.58;101633.50;4972544;28;20261;-80
2021/11/06 00:17:58;;;;;;;8.87;8.07;;;;;;;6.73;96.36;101638.69;4970951;28;20207;-80
2021/11/06 00:20:25;;;;;;;9.13;7.47;;;;;;;6.73;96.04;101657.72;4972537;28;21022;-80
2021/11/06 00:22:51;;;;;;;9.67;8.70;;;;;;;6.70;95.70;101651.59;4973516;28;20702;-80
2021/11/06 00:25:18;;;;;;;9.87;7.70;;;;;;;6.71;95.31;101664.59;4975944;28;20285;-81
2021/11/06 00:27:46;;;;;;;10.00;7.73;;;;;;;6.66;96.07;101674.03;4977311;28;20494;-80
2021/11/06 00:30:13;;;;;;;9.63;8.73;;;;;;;6.63;96.36;101655.81;4972806;28;20239;-80
2021/11/06 00:32:40;;;;;;;11.43;8.93;;;;;;;6.68;96.27;101667.16;4976445;28;20295;-81
2021/11/06 00:35:09;;;;;;;9.67;8.17;;;;;;;6.66;95.35;101673.16;4972716;28;20263;-80
2021/11/06 00:37:36;;;;;;;8.40;7.70;;;;;;;6.61;96.30;101672.22;4973267;28;20265;-81
2021/11/06 00:40:04;;;;;;;9.47;8.30;;;;;;;6.50;95.59;101670.31;4977193;28;20247;-81
2021/11/06 00:42:30;;;;;;;8.53;7.70;;;;;;;6.50;95.66;101674.59;4972333;28;20235;-80
2021/11/06 00:44:56;;;;;;;8.90;8.10;;;;;;;6.52;95.50;101670.31;4976156;28;20261;-80
2021/11/06 00:47:23;;;;;;;9.67;8.77;;;;;;;6.44;95.99;101677.09;4973231;28;20655;-80
2021/11/06 00:49:51;;;;;;;11.33;9.07;;;;;;;6.47;96.28;101638.25;4973938;28;20235;-80
2021/11/06 00:52:17;;;;;;;11.87;9.00;;;;;;;6.51;96.79;101629.66;4976168;28;20240;-80
2021/11/06 00:54:43;;;;;;;9.20;8.30;;;;;;;6.51;96.10;101642.63;4974129;28;20211;-80
2021/11/06 00:57:10;;;;;;;9.67;8.77;;;;;;;6.47;96.94;101640.84;4973426;28;20211;-80
2021/11/06 00:59:36;;;;;;;10.20;8.90;;;;;;;6.39;97.10;101627.75;4973325;28;20702;-79
2021/11/06 01:02:03;;;;;;;15.63;9.43;;;;;;;6.43;96.89;101629.53;4975624;28;20230;-77
2021/11/06 01:04:29;;;;;;;12.70;7.80;;;;;;;6.45;96.69;101642.53;4972764;28;20212;-78
2021/11/06 01:06:57;;;;;;;8.57;7.70;;;;;;;6.33;97.01;101644.06;4970406;28;20258;-79
2021/11/06 01:09:23;;;;;;;10.47;9.47;;;;;;;6.35;97.35;101633.72;4974335;28;20705;-80
2021/11/06 01:11:50;;;;;;;11.20;9.13;;;;;;;6.38;97.37;101617.34;4975344;28;20257;-78
2021/11/06 01:14:17;;;;;;;9.07;7.83;;;;;;;6.41;97.12;101628.63;4970988;28;20218;-81
2021/11/06 01:16:44;;;;;;;10.20;8.53;;;;;;;6.41;96.39;101653.72;4972265;28;20219;-79
2021/11/06 01:19:10;;;;;;;8.80;8.00;;;;;;;6.40;96.27;101651.94;4973222;28;20211;-81
2021/11/06 01:21:37;;;;;;;9.40;8.47;;;;;;;6.41;96.32;101636.41;4974654;28;20219;-79
2021/11/06 01:24:06;;;;;;;12.63;9.10;;;;;;;6.36;97.19;101638.03;4973394;28;20674;-80
2021/11/06 01:26:33;;;;;;;11.27;8.70;;;;;;;6.43;97.40;101633.84;4972423;28;20707;-80
2021/11/06 01:29:00;;;;;;;12.73;9.63;;;;;;;6.50;97.16;101640.88;4972605;28;21035;-80
2021/11/06 01:31:27;;;;;;;15.50;8.80;;;;;;;6.51;97.38;101638.31;4974870;28;20291;-80
2021/11/06 01:33:53;;;;;;;9.10;8.30;;;;;;;6.50;96.45;101656.44;4974041;28;20214;-79
2021/11/06 01:36:20;;;;;;;9.60;8.60;;;;;;;6.45;96.69;101652.91;4973248;28;20264;-80
2021/11/06 01:38:46;;;;;;;9.07;7.70;;;;;;;6.47;95.96;101664.19;4975024;28;20214;-79
2021/11/06 01:41:14;;;;;;;8.47;7.77;;;;;;;6.36;94.73;101697.69;4971964;28;20219;-80
2021/11/06 01:43:41;;;;;;;13.33;8.00;;;;;;;6.37;95.54;101707.22;4970470;28;20231;-79
2021/11/06 01:46:09;;;;;;;13.30;8.90;;;;;;;6.29;95.52;101693.25;4974120;28;20218;-77
2021/11/06 01:48:36;;;;;;;8.57;7.70;;;;;;;6.31;96.26;101676.88;4971251;28;20219;-78
2021/11/06 01:51:05;;;;;;;11.43;8.40;;;;;;;6.25;96.37;101649.97;4972294;28;20261;-80
2021/11/06 01:53:32;;;;;;;9.17;8.27;;;;;;;6.29;97.04;101646.56;4976335;28;20302;-79
2021/11/06 01:55:59;;;;;;;8.47;7.67;;;;;;;6.23;96.48;101660.31;4974844;28;20204;-79
2021/11/06 01:58:28;;;;;;;7.80;7.10;;;;;;;6.22;95.80;101665.44;4976394;28;20642;-79
2021/11/06 02:00:56;;;;;;;14.50;9.67;;;;;;;6.27;96.71;101662.09;4972863;28;20212;-78
2021/11/06 02:03:22;;;;;;;9.90;8.03;;;;;;;6.33;96.49;101664.81;4977222;28;20228;-80
2021/11/06 02:05:49;;;;;;;8.37;6.70;;;;;;;6.26;95.69;101691.44;4972233;28;20214;-79
2021/11/06 02:08:16;;;;;;;8.83;7.00;;;;;;;6.23;95.32;101712.16;4976488;28;20628;-79
2021/11/06 02:10:43;;;;;;;10.50;9.50;;;;;;;6.14;95.24;101718.03;4973207;28;20229;-80
2021/11/06 02:13:10;;;;;;;8.60;6.63;;;;;;;6.21;95.94;101694.84;4973203;28;20227;-80
2021/11/06 02:15:38;;;;;;;8.90;8.00;;;;;;;6.04;95.87;101676.34;4970694;28;20210;-80
2021/11/06 02:18:05;;;;;;;9.27;6.93;;;;;;;6.08;95.97;101670.38;4970861;28;20736;-79
2021/11/06 02:20:32;;;;;;;8.70;7.90;;;;;;;6.08;96.08;101676.41;4973112;28;20206;-79
2021/11/06 02:23:00;;;;;;;9.30;8.30;;;;;;;6.18;95.87;101700.81;4974245;28;20651;-79
2021/11/06 02:25:27;;;;;;;8.73;8.03;;;;;;;6.16;95.37;101703.41;4974370;28;20659;-79
2021/11/06 02:27:54;;;;;;;9.03;7.70;;;;;;;6.15;95.69;101706.81;4970939;28;20241;-78
2021/11/06 02:30:21;;;;;;;13.47;10.80;;;;;;;6.18;97.03;101664.50;4975196;28;20235;-79
2021/11/06 02:32:48;;;;;;;9.63;8.73;;;;;;;6.22;96.66;101657.66;4974397;28;20250;-79
2021/11/06 02:35:15;;;;;;;10.73;9.83;;;;;;;6.22;97.01;101658.53;4970111;28;20206;-80
2021/11/06 02:37:42;;;;;;;8.80;8.00;;;;;;;6.26;96.59;101651.69;4969374;28;20461;-79
2021/11/06 02:40:12;;;;;;;8.43;6.97;;;;;;;6.28;95.97;101676.84;4972281;28;20206;-79
2021/11/06 02:42:38;;;;;;;8.10;7.30;;;;;;;6.24;95.66;101695.72;4972926;28;20225;-79
2021/11/06 02:45:05;;;;;;;12.07;11.00;;;;;;;6.31;95.37;101697.63;4971670;28;20215;-79
2021/11/06 02:47:32;;;;;;;10.77;9.90;;;;;;;6.38;96.05;101698.59;4973167;28;20209;-79
2021/11/06 02:49:59;;;;;;;11.33;10.33;;;;;;;6.42;95.46;101700.44;4970848;28;20757;-79
2021/11/06 02:52:25;;;;;;;13.07;11.77;;;;;;;6.42;96.66;101666.72;4975777;28;20806;-78
2021/11/06 02:54:52;;;;;;;12.17;10.87;;;;;;;6.50;96.23;101651.25;4971321;28;20478;-79
2021/11/06 02:57:20;;;;;;;11.20;10.20;;;;;;;6.57;96.16;101651.38;4976802;28;20268;-80
2021/11/06 02:59:46;;;;;;;10.20;9.40;;;;;;;6.57;96.28;101659.16;4971133;28;20220;-80
2021/11/06 03:02:12;;;;;;;10.10;9.20;;;;;;;6.57;96.04;101671.28;4970058;28;20223;-79
2021/11/06 03:04:39;;;;;;;10.43;9.50;;;;;;;6.53;95.60;101698.00;4978638;28;20258;-79
2021/11/06 03:07:07;;;;;;;14.67;12.17;;;;;;;6.57;95.33;101689.44;4969967;28;20221;-78
2021/11/06 03:09:37;;;;;;;11.93;11.03;;;;;;;6.57;95.79;101673.88;4979900;28;20281;-79
2021/11/06 03:12:08;;;;;;;12.80;11.63;;;;;;;6.58;96.73;101644.50;4975921;28;20330;-79
2021/11/06 03:14:37;;;;;;;12.33;11.30;;;;;;;6.55;97.27;101636.66;4970874;28;20285;-79
2021/11/06 03:17:04;;;;;;;13.07;11.93;;;;;;;6.59;96.85;101619.44;4969267;28;20717;-79
2021/11/06 03:19:31;;;;;;;13.77;12.17;;;;;;;6.65;97.38;101628.16;4974130;28;20689;-79
2021/11/06 03:21:57;;;;;;;13.27;11.93;;;;;;;6.63;96.94;101634.19;4972064;28;20233;-78
2021/11/06 03:24:23;;;;;;;12.47;11.27;;;;;;;6.63;96.72;101632.47;4981548;28;20447;-79
2021/11/06 03:26:50;;;;;;;12.10;11.07;;;;;;;6.69;96.73;101636.88;4971648;28;20210;-79
2021/11/06 03:29:16;;;;;;;10.43;9.17;;;;;;;6.68;96.64;101637.72;4973129;28;20206;-78
2021/11/06 03:31:44;;;;;;;11.30;9.83;;;;;;;6.67;96.41;101656.75;4968920;28;20234;-80
2021/11/06 03:34:10;;;;;;;11.63;10.63;;;;;;;6.60;96.28;101657.47;4972200;28;20761;-79
2021/11/06 03:36:37;;;;;;;10.90;10.00;;;;;;;6.55;96.15;101660.00;4975289;28;20486;-78
2021/11/06 03:39:04;;;;;;;11.73;10.30;;;;;;;6.54;96.03;101661.72;4976121;28;20213;-79
2021/11/06 03:41:31;;;;;;;11.97;10.87;;;;;;;6.62;96.05;101669.66;4973646;28;20689;-79
2021/11/06 03:43:57;;;;;;;12.00;10.93;;;;;;;6.66;96.63;101670.56;4970603;28;20706;-78
2021/11/06 03:46:24;;;;;;;12.53;11.07;;;;;;;6.65;96.56;101668.81;4974215;28;20736;-80
2021/11/06 03:48:53;;;;;;;11.47;10.47;;;;;;;6.71;96.21;101672.38;4967848;28;20210;-79
2021/11/06 03:51:20;;;;;;;12.07;10.97;;;;;;;6.68;95.48;101694.81;4972558;28;20330;-79
2021/11/06 03:53:47;;;;;;;12.60;11.50;;;;;;;6.67;95.35;101714.69;4968218;28;20207;-78
2021/11/06 03:56:13;;;;;;;11.57;10.37;;;;;;;6.67;95.22;101711.22;4970224;28;20207;-78
2021/11/06 03:58:39;;;;;;;11.00;10.07;;;;;;;6.71;95.01;101719.09;4980745;28;20266;-78
2021/11/06 04:01:06;;;;;;;11.97;10.87;;;;;;;6.75;95.58;101712.22;4994205;28;20431;-77
2021/11/06 04:03:32;;;;;;;11.23;10.30;;;;;;;6.84;95.27;101714.09;4995517;28;20238;-78
2021/11/06 04:06:00;;;;;;;11.70;10.53;;;;;;;6.85;95.06;101723.66;4991107;28;20215;-77
2021/11/06 04:08:26;;;;;;;12.13;11.07;;;;;;;6.88;95.28;101741.88;4981971;28;20215;-78
2021/11/06 04:10:52;;;;;;;12.13;11.10;;;;;;;6.88;94.81;101736.69;4978701;28;21229;-79
2021/11/06 04:13:19;;;;;;;12.47;11.37;;;;;;;6.86;95.16;101722.81;4983467;28;20242;-78
2021/11/06 04:15:46;;;;;;;12.97;11.97;;;;;;;6.92;94.41;101720.31;4972141;28;20324;-79
2021/11/06 04:18:12;;;;;;;12.50;11.23;;;;;;;7.00;95.07;101726.50;4978286;28;20215;-78
2021/11/06 04:20:39;;;;;;;12.60;11.37;;;;;;;7.03;94.42;101734.31;4973371;28;20294;-78
2021/11/06 04:23:07;;;;;;;12.43;11.53;;;;;;;6.97;94.86;101737.69;4974635;28;20253;-78
2021/11/06 04:25:34;;;;;;;12.50;11.30;;;;;;;6.97;94.69;101737.69;4975034;28;20211;-79
2021/11/06 04:28:00;;;;;;;13.43;12.23;;;;;;;7.02;94.24;101742.97;4973474;28;20218;-79
2021/11/06 04:30:28;;;;;;;12.40;11.30;;;;;;;7.06;94.09;101756.91;4971395;28;20592;-79
2021/11/06 04:32:54;;;;;;;12.43;11.33;;;;;;;7.10;94.50;101749.16;4980482;28;20329;-79
2021/11/06 04:35:20;;;;;;;12.53;11.43;;;;;;;7.16;94.54;101751.88;4978563;28;20689;-79
2021/11/06 04:37:47;;;;;;;12.10;11.20;;;;;;;7.13;94.06;101758.72;4971714;28;20210;-79
2021/11/06 04:40:14;;;;;;;15.73;12.73;;;;;;;7.23;94.46;101754.56;4972182;28;20730;-79
2021/11/06 04:42:42;;;;;;;13.43;12.33;;;;;;;7.07;94.45;101764.69;4979561;28;20281;-78
2021/11/06 04:45:10;;;;;;;13.20;12.13;;;;;;;7.05;93.83;101753.41;4973076;28;20211;-78
2021/11/06 04:47:37;;;;;;;13.33;12.30;;;;;;;7.14;94.29;101748.38;4975255;28;20265;-79
2021/11/06 04:50:05;;;;;;;13.73;12.60;;;;;;;7.24;94.63;101748.53;4973046;28;20264;-79
2021/11/06 04:52:33;;;;;;;12.97;11.97;;;;;;;7.30;94.31;101752.09;4976224;28;20306;-79
2021/11/06 04:55:00;;;;;;;13.87;12.50;;;;;;;7.30;93.70;101780.66;4971947;28;20222;-79
2021/11/06 04:57:27;;;;;;;13.13;11.70;;;;;;;7.28;93.39;101804.88;4971236;28;20219;-78
2021/11/06 04:59:54;;;;;;;12.67;11.47;;;;;;;7.34;93.13;101804.97;4972341;28;20215;-79
2021/11/06 05:02:20;;;;;;;13.73;12.53;;;;;;;7.39;92.37;101800.69;4975377;28;20226;-78
2021/11/06 05:04:46;;;;;;;12.43;11.33;;;;;;;7.38;91.89;101814.56;4975455;28;20219;-77
2021/11/06 05:07:13;;;;;;;11.27;10.40;;;;;;;7.24;91.24;101855.00;4970664;28;20305;-79
2021/11/06 05:09:39;;;;;;;11.27;10.03;;;;;;;7.34;91.15;101849.13;4972183;28;20488;-79
2021/11/06 05:12:06;;;;;;;11.40;10.40;;;;;;;7.20;90.90;101859.28;4977754;28;20237;-79
2021/11/06 05:14:34;;;;;;;10.87;9.87;;;;;;;7.22;91.45;101854.97;4972606;28;20648;-80
2021/11/06 05:17:01;;;;;;;11.90;10.90;;;;;;;7.23;91.17;101855.84;4972614;28;20214;-79
2021/11/06 05:19:27;;;;;;;10.60;9.53;;;;;;;7.28;91.17;101856.81;4975446;28;20511;-79
2021/11/06 05:21:53;;;;;;;11.40;10.20;;;;;;;7.25;90.92;101860.19;4974041;28;20227;-79
2021/11/06 05:24:20;;;;;;;11.53;10.43;;;;;;;7.26;90.38;101868.91;4976630;28;20238;-80
2021/11/06 05:26:46;;;;;;;11.97;10.77;;;;;;;7.23;91.13;101855.84;4975309;28;20226;-79
2021/11/06 05:29:12;;;;;;;12.43;11.23;;;;;;;7.24;90.78;101850.69;4977071;28;20211;-79
2021/11/06 05:31:40;;;;;;;12.47;11.47;;;;;;;7.27;90.69;101852.44;4970463;28;20259;-79
2021/11/06 05:34:07;;;;;;;12.00;11.10;;;;;;;7.29;91.49;101859.41;4977953;28;20219;-78
2021/11/06 05:36:34;;;;;;;11.77;10.77;;;;;;;7.31;91.14;101869.84;4969739;28;20779;-80
2021/11/06 05:39:01;;;;;;;12.87;11.57;;;;;;;7.24;89.97;101886.19;4971636;28;20265;-79
2021/11/06 05:41:27;;;;;;;13.60;12.27;;;;;;;7.27;90.37;101881.00;4970696;28;20217;-78
2021/11/06 05:43:54;;;;;;;13.57;12.07;;;;;;;7.24;90.65;101876.66;4970827;28;20685;-79
2021/11/06 05:46:20;;;;;;;13.30;12.07;;;;;;;7.26;91.39;101868.91;4976709;28;20218;-79
2021/11/06 05:48:48;;;;;;;12.97;11.53;;;;;;;7.21;89.79;101878.31;4969109;28;20215;-79
2021/11/06 05:51:14;;;;;;;14.87;12.47;;;;;;;7.23;90.81;101884.41;4970554;28;20210;-79
2021/11/06 05:53:40;;;;;;;13.00;11.63;;;;;;;7.10;90.79;101886.78;4974058;28;20234;-79
2021/11/06 05:56:07;;;;;;;12.97;11.77;;;;;;;7.15;91.02;101864.38;4970121;28;20215;-78
2021/11/06 05:58:33;;;;;;;15.67;12.80;;;;;;;7.10;91.33;101878.13;4975298;28;20573;-79
2021/11/06 06:01:00;;;;;;;13.30;12.00;;;;;;;7.02;90.93;101861.53;4972479;28;20215;-79
2021/11/06 06:03:26;;;;;;;14.03;12.73;;;;;;;6.97;91.48;101843.25;4975787;28;20239;-78
2021/11/06 06:05:54;;;;;;;13.70;12.40;;;;;;;6.92;91.91;101825.00;4969974;28;20210;-78
2021/11/06 06:08:20;;;;;;;14.33;12.97;;;;;;;6.93;91.40;101829.34;4975906;28;20990;-79
2021/11/06 06:10:47;;;;;;;13.83;12.47;;;;;;;6.93;91.57;101820.69;4985048;28;20216;-79
2021/11/06 06:13:13;;;;;;;15.47;12.83;;;;;;;7.00;91.86;101835.53;4972877;28;20297;-79
2021/11/06 06:15:40;;;;;;;14.07;12.77;;;;;;;6.88;91.42;101837.91;4974077;28;20215;-79
2021/11/06 06:18:06;;;;;;;14.77;13.43;;;;;;;6.75;92.59;101826.41;4969066;28;20218;-79
2021/11/06 06:20:32;;;;;;;14.60;13.27;;;;;;;6.66;92.71;101803.78;4981637;28;20211;-80
2021/11/06 06:23:00;;;;;;;15.87;14.33;;;;;;;6.79;92.95;101794.47;4973358;28;20226;-79
2021/11/06 06:25:27;;;;;;;12.93;11.60;;;;;;;6.78;91.79;101800.53;4975840;28;20755;-80
2021/11/06 06:27:53;;;;;;;13.13;11.83;;;;;;;6.73;91.99;101813.41;4971909;28;20238;-79
2021/11/06 06:30:20;;;;;;;14.10;12.80;;;;;;;6.68;92.59;101803.78;4968606;28;20215;-79
2021/11/06 06:32:47;;;;;;;14.33;12.93;;;;;;;6.56;92.63;101792.34;4979219;28;20237;-79
2021/11/06 06:35:16;;;;;;;13.13;11.83;;;;;;;6.61;93.03;101787.22;4968527;28;20256;-79
2021/11/06 06:37:42;;;;;;;13.43;12.27;;;;;;;6.63;92.35;101808.88;4972570;28;20210;-79
2021/11/06 06:40:12;;;;;;;13.87;11.37;;;;;;;6.69;91.75;101795.16;4969048;28;20206;-78
2021/11/06 06:42:39;;;;;;;15.27;11.53;;;;;;;6.66;92.61;101808.06;4973271;28;20228;-78
2021/11/06 06:45:06;;;;;;;12.67;11.37;;;;;;;6.63;92.44;101813.22;4969566;28;20289;-79
2021/11/06 06:47:32;;;;;;;10.87;9.83;;;;;;;6.67;91.66;101823.66;4968333;28;20215;-78
2021/11/06 06:49:59;;;;;;;11.60;10.60;;;;;;;6.71;91.73;101822.88;4969358;28;20214;-79
2021/11/06 06:52:25;;;;;;;11.27;10.17;;;;;;;6.73;91.69;101810.81;4976572;28;20796;-79
2021/11/06 06:54:52;;;;;;;11.43;10.43;;;;;;;6.76;91.45;101828.19;4968142;28;20650;-78
2021/11/06 06:57:20;;;;;;;10.67;9.77;;;;;;;6.86;91.84;101824.03;4983667;28;20217;-78
2021/11/06 06:59:47;;;;;;;11.90;10.73;;;;;;;6.89;92.40;101814.56;4971988;28;20270;-79
2021/11/06 07:02:14;;;;;;;12.37;10.20;;;;;;;6.95;91.88;101832.84;4970489;28;20218;-78
2021/11/06 07:04:41;;;;;;;11.57;10.57;;;;;;;7.03;92.05;101839.91;4976637;28;20689;-78
2021/11/06 07:07:07;;;;;;;10.73;9.80;;;;;;;7.04;90.99;101846.88;4969263;28;20271;-79
2021/11/06 07:09:33;;;;;;;10.53;9.53;;;;;;;7.10;90.61;101846.97;4973506;28;20263;-79
2021/11/06 07:12:00;;;;;;;11.20;9.90;;;;;;;7.09;90.95;101853.00;4968107;28;20524;-78
2021/11/06 07:14:28;;;;;;;10.60;9.70;;;;;;;7.12;91.11;101843.53;4968942;28;20230;-79
2021/11/06 07:16:54;;;;;;;15.07;8.30;;;;;;;7.08;91.00;101851.25;4970310;28;20214;-79
2021/11/06 07:19:21;;;;;;;13.33;8.57;;;;;;;7.14;90.30;101856.56;4973799;28;20228;-78
2021/11/06 07:21:47;;;;;;;9.70;8.80;;;;;;;7.12;90.49;101855.66;4973817;28;20230;-78
2021/11/06 07:24:13;;;;;;;9.10;8.30;;;;;;;7.20;91.08;101863.59;4973235;28;20863;-78
2021/11/06 07:26:40;;;;;;;10.30;9.43;;;;;;;7.16;90.63;101880.84;4971366;28;20207;-79
2021/11/06 07:29:06;;;;;;;8.33;7.63;;;;;;;7.26;90.47;101872.34;4973517;28;20355;-78
2021/11/06 07:31:34;;;;;;;8.47;7.77;;;;;;;7.32;90.62;101894.97;4969551;28;20632;-78
2021/11/06 07:34:00;;;;;;;8.03;7.20;;;;;;;7.27;89.94;101900.06;4971908;28;20213;-79
2021/11/06 07:36:27;;;;;;;6.97;6.37;;;;;;;7.31;90.19;101906.19;4973068;28;20274;-78
2021/11/06 07:38:54;;;;;;;8.00;6.27;;;;;;;7.27;89.96;101923.44;4971309;28;20238;-79
2021/11/06 07:41:20;;;;;;;8.53;6.63;;;;;;;7.29;90.01;101926.94;4970786;28;20566;-79
2021/11/06 07:43:47;;;;;;;6.57;5.93;;;;;;;7.33;89.17;101926.19;4968987;28;20298;-77
2021/11/06 07:46:14;;;;;;;6.80;6.10;;;;;;;7.34;89.66;101927.91;4971538;28;20215;-79
2021/11/06 07:48:42;;;;;;;6.27;5.50;;;;;;;7.34;89.25;101924.44;4972009;28;20211;-79
2021/11/06 07:51:08;;;;;;;7.17;5.47;;;;;;;7.36;89.18;101934.00;4971925;28;20748;-78
2021/11/06 07:53:34;;;;;;;8.87;6.10;;;;;;;7.38;88.66;101944.44;4975051;28;20227;-78
2021/11/06 07:56:01;;;;;;;9.53;6.57;;;;;;;7.47;89.01;101931.63;4972214;28;20238;-79
2021/11/06 07:58:27;;;;;;;7.37;6.40;;;;;;;7.53;88.66;101944.72;4969293;28;20226;-78
2021/11/06 08:00:53;;;;;;;6.03;5.40;;;;;;;7.45;88.57;101967.09;4971863;28;20207;-78
2021/11/06 08:03:20;;;;;;;6.80;6.10;;;;;;;7.55;89.04;101974.22;4970294;28;20297;-79
2021/11/06 08:05:48;;;;;;;7.80;6.13;;;;;;;7.54;88.41;101976.78;4971438;28;20219;-78
2021/11/06 08:08:14;;;;;;;7.33;5.47;;;;;;;7.60;88.90;101981.22;4968419;28;20219;-78
2021/11/06 08:10:40;;;;;;;6.17;5.53;;;;;;;7.64;87.89;101986.47;4970480;28;20211;-79
2021/11/06 08:13:08;;;;;;;7.60;5.33;;;;;;;7.60;87.57;102009.78;4968880;28;20231;-79
2021/11/06 08:15:34;;;;;;;6.10;5.47;;;;;;;7.65;87.70;102023.72;4968914;28;20207;-78
2021/11/06 08:18:00;;;;;;;6.37;5.70;;;;;;;7.61;87.10;102030.63;4969075;28;20215;-78
2021/11/06 08:20:27;;;;;;;8.77;6.20;;;;;;;7.50;86.54;102037.31;4968973;28;20207;-78
2021/11/06 08:22:55;;;;;;;6.83;5.00;;;;;;;7.54;87.51;102020.94;4970151;28;20240;-78
2021/11/06 08:25:23;;;;;;;5.97;5.47;;;;;;;7.60;87.26;102015.00;4967868;28;20273;-78
2021/11/06 08:27:53;;;;;;;6.60;5.23;;;;;;;7.68;87.07;102024.66;4973247;28;20693;-79
2021/11/06 08:30:21;;;;;;;5.33;4.20;;;;;;;7.81;86.62;102011.88;4969544;28;20753;-79
2021/11/06 08:32:49;;;;;;;7.43;4.93;;;;;;;7.88;85.98;102043.22;4971806;28;20240;-77
2021/11/06 08:35:17;;;;;;;5.37;4.67;;;;;;;7.93;85.79;102062.41;4967331;28;20681;-78
2021/11/06 08:37:43;;;;;;;5.77;5.20;;;;;;;7.93;84.63;102105.72;4970361;28;20494;-78
2021/11/06 08:40:12;;;;;;;5.20;4.67;;;;;;;7.88;84.29;102129.03;4971165;28;20235;-78
2021/11/06 08:42:39;;;;;;;5.07;4.37;;;;;;;7.92;84.57;102119.56;4975405;28;20285;-78
2021/11/06 08:45:08;;;;;;;4.70;4.30;;;;;;;7.94;84.10;102121.34;4973211;28;20745;-78
2021/11/06 08:47:35;;;;;;;6.17;4.60;;;;;;;8.05;84.68;102099.88;4977529;28;20697;-78
2021/11/06 08:50:01;;;;;;;6.63;4.60;;;;;;;7.98;83.12;102140.47;4971626;28;20912;-78
2021/11/06 08:52:28;;;;;;;6.00;4.43;;;;;;;8.08;83.44;102136.34;4971809;28;20236;-79
2021/11/06 08:54:54;;;;;;;4.80;3.77;;;;;;;7.88;82.45;102183.63;4970645;28;20213;-78
2021/11/06 08:57:22;;;;;;;5.17;3.80;;;;;;;8.01;82.88;102179.56;4973549;28;20219;-78
2021/11/06 08:59:53;;;;;;;4.10;3.70;;;;;;;8.04;82.27;102186.53;4972455;28;20203;-79
2021/11/06 09:02:20;;;;;;;4.80;3.97;;;;;;;8.13;83.34;102165.91;4973927;28;20234;-78
2021/11/06 09:04:49;;;;;;;3.77;3.47;;;;;;;8.19;83.14;102155.63;4970250;28;20215;-78
2021/11/06 09:07:16;;;;;;;5.20;3.60;;;;;;;8.13;81.60;102213.59;4971156;28;20221;-78
2021/11/06 09:09:42;;;;;;;4.97;3.43;;;;;;;8.05;80.60;102246.38;4972714;28;20210;-80
2021/11/06 09:12:09;;;;;;;5.77;4.27;;;;;;;8.15;81.81;102211.03;4970838;28;20572;-78
2021/11/06 09:14:37;;;;;;;4.87;3.43;;;;;;;8.09;80.18;102260.34;4975296;28;20330;-79
2021/11/06 09:17:04;;;;;;;3.90;3.30;;;;;;;8.08;80.30;102280.25;4971405;28;20263;-79
2021/11/06 09:19:30;;;;;;;3.63;3.33;;;;;;;8.10;80.26;102262.94;4970400;28;20215;-78
2021/11/06 09:21:57;;;;;;;3.83;3.40;;;;;;;8.19;80.10;102269.22;4972565;28;20234;-77
2021/11/06 09:24:23;;;;;;;3.40;3.10;;;;;;;8.30;80.73;102234.72;4973467;28;20204;-79
2021/11/06 09:26:49;;;;;;;5.97;3.33;;;;;;;8.29;80.26;102251.19;4971823;28;20215;-78
2021/11/06 09:29:17;;;;;;;4.77;3.50;;;;;;;8.26;79.24;102284.94;4971936;28;20752;-78
2021/11/06 09:31:46;;;;;;;4.67;3.47;;;;;;;8.28;78.90;102291.06;4979831;28;20258;-80
2021/11/06 09:34:13;;;;;;;5.60;3.60;;;;;;;8.19;79.08;102296.09;4972718;28;20231;-79
2021/11/06 09:36:40;;;;;;;3.00;2.80;;;;;;;8.27;80.18;102270.25;4980648;28;20246;-80
2021/11/06 09:39:10;;;;;;;4.17;3.13;;;;;;;8.20;79.00;102297.84;4973019;28;21482;-78
2021/11/06 09:41:37;;;;;;;4.20;3.57;;;;;;;8.16;79.74;102309.03;4972068;28;20214;-79
2021/11/06 09:44:04;;;;;;;5.10;3.20;;;;;;;8.11;78.34;102315.88;4972377;28;20208;-78
2021/11/06 09:46:30;;;;;;;5.10;3.23;;;;;;;8.17;79.12;102295.19;4973878;28;20571;-79
2021/11/06 09:48:58;;;;;;;3.50;3.20;;;;;;;8.21;78.13;102294.41;4973710;28;20289;-79
2021/11/06 09:51:24;;;;;;;5.47;3.87;;;;;;;8.27;79.00;102291.94;4972811;28;20666;-78
2021/11/06 09:53:52;;;;;;;4.47;3.13;;;;;;;8.34;78.20;102304.22;4974451;28;20277;-80
2021/11/06 09:56:21;;;;;;;4.17;3.20;;;;;;;8.45;79.20;102280.16;4975396;28;20219;-78
2021/11/06 09:58:49;;;;;;;4.77;3.30;;;;;;;8.43;78.52;102290.53;4974139;28;20211;-78
2021/11/06 10:01:15;;;;;;;4.23;3.40;;;;;;;8.42;77.96;102296.56;4972663;28;20211;-79
2021/11/06 10:03:42;;;;;;;4.20;3.37;;;;;;;8.40;77.73;102292.16;4971531;28;20489;-78
2021/11/06 10:06:17;;;;;;;3.87;3.43;;;;;;;8.42;78.36;102304.38;4971822;28;20207;-78
2021/11/06 10:08:45;;;;;;;3.83;3.43;;;;;;;8.40;78.37;102289.56;4972662;28;20258;-79
2021/11/06 10:11:14;;;;;;;3.53;3.23;;;;;;;8.48;79.79;102236.88;4969364;28;20211;-79
2021/11/06 10:13:50;;;;;;;4.90;3.33;;;;;;;8.56;78.76;102270.81;4975633;28;20285;-78
2021/11/06 10:16:19;;;;;;;4.90;3.50;;;;;;;8.64;80.39;102242.34;4970245;28;20211;-79
2021/11/06 10:18:45;;;;;;;3.63;3.33;;;;;;;8.65;79.15;102270.13;4976166;28;20265;-78
2021/11/06 10:21:13;;;;;;;3.67;3.37;;;;;;;8.50;78.75;102288.94;4988914;28;20207;-78
2021/11/06 10:23:42;;;;;;;3.70;3.33;;;;;;;8.48;78.72;102273.31;4988446;28;20231;-78
2021/11/06 10:26:18;;;;;;;4.20;3.70;;;;;;;8.49;78.86;102255.97;4992733;28;20206;-79
2021/11/06 10:28:48;;;;;;;3.97;3.40;;;;;;;8.61;79.17;102239.69;4976153;28;20729;-79
2021/11/06 10:31:15;;;;;;;4.17;3.07;;;;;;;8.68;78.87;102244.13;4975543;28;20511;-82
2021/11/06 10:33:46;;;;;;;4.60;3.60;;;;;;;8.65;78.39;102283.16;4975544;28;20329;-78
2021/11/06 10:36:22;;;;;;;4.60;3.57;;;;;;;8.57;78.00;102285.59;4974911;28;20582;-79
2021/11/06 10:39:04;;;;;;;3.90;3.30;;;;;;;8.42;78.13;102273.16;4981048;28;20281;-79
2021/11/06 10:41:32;;;;;;;4.20;3.63;;;;;;;8.38;77.82;102281.72;4976370;28;20215;-79
2021/11/06 10:43:59;;;;;;;7.30;3.77;;;;;;;8.40;78.89;102247.94;4969946;28;20663;-79
2021/11/06 10:46:48;;;;;;;3.57;3.27;;;;;;;8.32;79.06;102255.59;4968915;28;20219;-79
2021/11/06 10:49:33;;;;;;;5.23;3.67;;;;;;;8.34;79.70;102226.16;4965723;28;20211;-79
2021/11/06 10:52:02;;;;;;;8.07;3.47;;;;;;;8.43;80.39;102193.38;4971068;28;20240;-80
2021/11/06 10:54:30;;;;;;;5.73;3.57;;;;;;;8.39;79.79;102189.81;4973333;28;20296;-79
2021/11/06 10:56:57;;;;;;;4.10;3.60;;;;;;;8.49;81.58;102142.31;4971228;28;20333;-78
2021/11/06 10:59:23;;;;;;;4.87;3.77;;;;;;;8.55;80.76;102142.41;4967806;28;20223;-79
2021/11/06 11:01:53;;;;;;;3.67;3.37;;;;;;;8.55;80.53;102165.84;4967257;28;20235;-79
2021/11/06 11:04:21;;;;;;;4.17;3.70;;;;;;;8.35;80.29;102181.06;4973624;28;20207;-80
2021/11/06 11:06:49;;;;;;;4.87;4.37;;;;;;;8.34;80.51;102171.53;4967526;28;20215;-79
2021/11/06 11:09:19;;;;;;;4.53;4.10;;;;;;;8.40;81.34;102129.09;4971862;28;20270;-79
2021/11/06 11:11:47;;;;;;;3.47;3.20;;;;;;;8.43;81.67;102094.50;4970934;28;20962;-79
2021/11/06 11:14:16;;;;;;;4.40;4.00;;;;;;;8.48;82.15;102083.31;4967359;28;20297;-79
2021/11/06 11:16:53;;;;;;;4.43;4.00;;;;;;;8.57;81.94;102089.53;4971388;28;20246;-80
2021/11/06 11:19:31;;;;;;;6.20;4.13;;;;;;;8.57;82.26;102085.19;4967672;28;20230;-78
2021/11/06 11:21:57;;;;;;;4.63;4.20;;;;;;;8.65;81.89;102074.91;4971362;28;20289;-79
2021/11/06 11:24:25;;;;;;;4.60;4.20;;;;;;;8.70;81.58;102086.25;4970488;28;20261;-79
2021/11/06 11:26:53;;;;;;;5.43;4.07;;;;;;;8.67;80.55;102115.72;4972364;28;20211;-80